Time,TemperatureF,DewpointF,PressureIn,WindDirection,WindDirectionDegrees,WindSpeedMPH,WindSpeedGustMPH,Humidity,HourlyPrecipIn,Conditions,Clouds,dailyrainin,SoftwareType,DateUTC
2013-07-13 00:22:00,66.0,63.0,-100.00,SW,225,2.0,5.0,90,-99.99,,,-99.99,,2013-07-13 07:22:00,
2013-07-13 01:11:00,66.0,63.0,-100.00,SW,236,3.0,4.0,91,-99.99,,,-99.99,,2013-07-13 08:11:00,
2013-07-13 01:52:00,66.0,63.0,-100.00,WNW,282,2.0,3.0,91,-99.99,,,-99.99,,2013-07-13 08:52:00,
2013-07-13 02:22:00,66.0,63.0,-100.00,SSE,167,2.0,4.0,91,-99.99,,,-99.99,,2013-07-13 09:22:00,
2013-07-13 03:11:00,66.0,63.0,-100.00,ESE,113,1.0,2.0,90,-99.99,,,-99.99,,2013-07-13 10:11:00,
2013-07-13 03:43:00,66.0,63.0,-100.00,NW,317,2.0,4.0,90,-99.99,,,-99.99,,2013-07-13 10:43:00,
2013-07-13 04:11:00,66.0,63.0,-100.00,NNW,328,2.0,3.0,91,-99.99,,,-99.99,,2013-07-13 11:11:00,
2013-07-13 04:21:00,66.0,63.0,-100.00,NNW,328,2.0,3.0,91,-99.99,,,-99.99,,2013-07-13 11:21:00,
2013-07-13 04:32:00,66.0,63.0,-100.00,NE,43,2.0,3.0,90,-99.99,,,-99.99,,2013-07-13 11:32:00,
2013-07-13 04:42:00,66.0,63.0,-100.00,NNE,15,3.0,4.0,90,-99.99,,,-99.99,,2013-07-13 11:42:00,
2013-07-13 05:12:00,66.0,63.0,-100.00,North,4,1.0,3.0,90,-99.99,,,-99.99,,2013-07-13 12:12:00,
2013-07-13 05:43:00,66.0,63.0,-100.00,NW,322,1.0,2.0,90,-99.99,,,-99.99,,2013-07-13 12:43:00,
2013-07-13 05:52:00,66.0,63.0,-100.00,NW,322,1.0,2.0,90,-99.99,,,-99.99,,2013-07-13 12:52:00,
2013-07-13 06:01:00,66.0,63.0,-100.00,SE,128,2.0,3.0,90,-99.99,,,-99.99,,2013-07-13 13:01:00,
2013-07-13 06:11:00,66.0,63.0,-100.00,East,82,1.0,2.0,90,-99.99,,,-99.99,,2013-07-13 13:11:00,
2013-07-13 06:32:00,66.0,63.0,-100.00,NW,321,2.0,4.0,90,-99.99,,,-99.99,,2013-07-13 13:32:00,
2013-07-13 06:53:00,66.0,63.0,-100.00,North,349,1.0,3.0,91,-99.99,,,-99.99,,2013-07-13 13:53:00,
2013-07-13 07:11:00,66.0,63.0,-100.00,West,265,1.0,2.0,90,-99.99,,,-99.99,,2013-07-13 14:11:00,
2013-07-13 07:22:00,66.0,63.0,-100.00,WNW,289,4.0,5.0,91,-99.99,,,-99.99,,2013-07-13 14:22:00,
2013-07-13 07:32:00,65.0,62.0,-100.00,WNW,300,4.0,5.0,91,-99.99,,,-99.99,,2013-07-13 14:32:00,
2013-07-13 07:53:00,66.0,63.0,-100.00,WNW,291,2.0,5.0,91,-99.99,,,-99.99,,2013-07-13 14:53:00,
2013-07-13 08:22:00,66.0,63.0,-100.00,West,272,2.0,4.0,91,-99.99,,,-99.99,,2013-07-13 15:22:00,
2013-07-13 08:33:00,66.0,63.0,-100.00,WNW,287,2.0,5.0,91,-99.99,,,-99.99,,2013-07-13 15:33:00,
2013-07-13 08:43:00,66.0,63.0,-100.00,North,359,2.0,5.0,90,-99.99,,,-99.99,,2013-07-13 15:43:00,
2013-07-13 08:53:00,66.0,63.0,-100.00,NW,312,2.0,5.0,90,-99.99,,,-99.99,,2013-07-13 15:53:00,
2013-07-13 09:11:00,67.0,63.0,-100.00,NNE,17,2.0,3.0,88,-99.99,,,-99.99,,2013-07-13 16:11:00,
2013-07-13 09:22:00,68.0,64.0,-100.00,NW,308,3.0,7.0,86,-99.99,,,-99.99,,2013-07-13 16:22:00,
2013-07-13 09:43:00,70.0,64.0,-100.00,SW,235,2.0,6.0,80,-99.99,,,-99.99,,2013-07-13 16:43:00,
2013-07-13 09:53:00,71.0,63.0,-100.00,SSW,210,4.0,7.0,77,-99.99,,,-99.99,,2013-07-13 16:53:00,
2013-07-13 10:11:00,72.0,63.0,-100.00,South,179,2.0,6.0,74,-99.99,,,-99.99,,2013-07-13 17:11:00,
2013-07-13 10:22:00,73.0,63.0,-100.00,SW,227,4.0,8.0,71,-99.99,,,-99.99,,2013-07-13 17:22:00,
2013-07-13 10:42:00,75.0,63.0,-100.00,WSW,246,3.0,8.0,66,-99.99,,,-99.99,,2013-07-13 17:42:00,
2013-07-13 10:52:00,75.0,63.0,-100.00,WSW,246,3.0,8.0,66,-99.99,,,-99.99,,2013-07-13 17:52:00,
2013-07-13 11:11:00,75.0,63.0,-100.00,SW,234,6.0,10.0,67,-99.99,,,-99.99,,2013-07-13 18:11:00,
2013-07-13 11:21:00,75.0,63.0,-100.00,SW,227,7.0,10.0,66,-99.99,,,-99.99,,2013-07-13 18:21:00,
2013-07-13 11:43:00,75.0,63.0,-100.00,SW,229,7.0,11.0,66,-99.99,,,-99.99,,2013-07-13 18:43:00,
2013-07-13 11:52:00,75.0,63.0,-100.00,SW,229,7.0,11.0,66,-99.99,,,-99.99,,2013-07-13 18:52:00,
2013-07-13 12:11:00,75.0,63.0,-100.00,SW,225,9.0,12.0,67,-99.99,,,-99.99,,2013-07-13 19:11:00,
2013-07-13 12:32:00,75.0,62.0,-100.00,SW,217,7.0,10.0,64,-99.99,,,-99.99,,2013-07-13 19:32:00,
2013-07-13 12:52:00,75.0,62.0,-100.00,SW,228,8.0,13.0,64,-99.99,,,-99.99,,2013-07-13 19:52:00,
2013-07-13 13:11:00,75.0,62.0,-100.00,SW,228,8.0,12.0,64,-99.99,,,-99.99,,2013-07-13 20:11:00,
2013-07-13 13:22:00,75.0,62.0,-100.00,SW,228,8.0,12.0,64,-99.99,,,-99.99,,2013-07-13 20:22:00,
2013-07-13 13:42:00,75.0,62.0,-100.00,SSW,209,9.0,14.0,63,-99.99,,,-99.99,,2013-07-13 20:42:00,
2013-07-13 13:52:00,75.0,62.0,-100.00,SSW,208,9.0,14.0,64,-99.99,,,-99.99,,2013-07-13 20:52:00,
2013-07-13 14:22:00,74.0,61.0,-100.00,SW,220,9.0,13.0,65,-99.99,,,-99.99,,2013-07-13 21:22:00,
2013-07-13 14:53:00,74.0,61.0,-100.00,SW,227,10.0,15.0,65,-99.99,,,-99.99,,2013-07-13 21:53:00,
2013-07-13 15:53:00,73.0,61.0,-100.00,SW,220,8.0,13.0,67,-99.99,,,-99.99,,2013-07-13 22:53:00,
2013-07-13 16:53:00,74.0,62.0,-100.00,SW,218,7.0,12.0,66,-99.99,,,-99.99,,2013-07-13 23:53:00,
2013-07-13 17:21:00,74.0,62.0,-100.00,SW,228,8.0,12.0,67,-99.99,,,-99.99,,2013-07-14 00:21:00,
2013-07-13 17:53:00,74.0,63.0,-100.00,SW,230,7.0,10.0,68,-99.99,,,-99.99,,2013-07-14 00:53:00,
2013-07-13 18:01:00,74.0,62.0,-100.00,SW,223,7.0,10.0,67,-99.99,,,-99.99,,2013-07-14 01:01:00,
2013-07-13 18:22:00,73.0,62.0,-100.00,SW,226,7.0,11.0,69,-99.99,,,-99.99,,2013-07-14 01:22:00,
2013-07-13 18:52:00,71.0,63.0,-100.00,SW,227,7.0,11.0,77,-99.99,,,-99.99,,2013-07-14 01:52:00,
2013-07-13 19:22:00,70.0,64.0,-100.00,WSW,239,5.0,9.0,80,-99.99,,,-99.99,,2013-07-14 02:22:00,
2013-07-13 19:32:00,70.0,64.0,-100.00,SW,236,5.0,8.0,80,-99.99,,,-99.99,,2013-07-14 02:32:00,
2013-07-13 19:42:00,69.0,63.0,-100.00,SW,235,6.0,8.0,82,-99.99,,,-99.99,,2013-07-14 02:42:00,
2013-07-13 20:11:00,68.0,63.0,-100.00,SW,226,4.0,6.0,85,-99.99,,,-99.99,,2013-07-14 03:11:00,
2013-07-13 20:22:00,67.0,63.0,-100.00,SSW,202,4.0,6.0,86,-99.99,,,-99.99,,2013-07-14 03:22:00,
2013-07-13 21:11:00,66.0,62.0,-100.00,SSE,167,2.0,3.0,88,-99.99,,,-99.99,,2013-07-14 04:11:00,
2013-07-13 21:22:00,66.0,62.0,-100.00,SSE,167,2.0,3.0,88,-99.99,,,-99.99,,2013-07-14 04:22:00,
2013-07-13 21:32:00,66.0,62.0,-100.00,South,184,2.0,3.0,88,-99.99,,,-99.99,,2013-07-14 04:32:00,
2013-07-13 21:42:00,66.0,62.0,-100.00,South,171,1.0,2.0,88,-99.99,,,-99.99,,2013-07-14 04:42:00,
2013-07-13 22:11:00,65.0,62.0,-100.00,South,173,1.0,3.0,89,-99.99,,,-99.99,,2013-07-14 05:11:00,
2013-07-13 22:32:00,65.0,62.0,-100.00,NNE,15,1.0,1.0,90,-99.99,,,-99.99,,2013-07-14 05:32:00,
2013-07-13 22:43:00,65.0,62.0,-100.00,NE,45,1.0,1.0,90,-99.99,,,-99.99,,2013-07-14 05:43:00,
2013-07-13 23:11:00,63.0,60.0,-100.00,ENE,57,3.0,4.0,90,-99.99,,,-99.99,,2013-07-14 06:11:00,
2013-07-13 23:22:00,63.0,60.0,-100.00,NE,50,3.0,4.0,90,-99.99,,,-99.99,,2013-07-14 06:22:00,
2013-07-13 23:42:00,62.0,59.0,-100.00,NE,46,4.0,5.0,91,-99.99,,,-99.99,,2013-07-14 06:42:00,
2013-07-13 23:53:00,62.0,59.0,-100.00,NE,42,3.0,4.0,91,-99.99,,,-99.99,,2013-07-14 06:53:00,